Time;durP1;ratioP1;P1;durP2;ratioP2;P2;SDS_P1;SDS_P2;PMS_P1;PMS_P2;Temp;Humidity;BMP_temperature;BMP_pressure;BME280_temperature;BME280_humidity;BME280_pressure;Samples;Min_cycle;Max_cycle;Signal;HPM_P1;HPM_P2
2022/06/11 00:01:48;;;;;;;19.30;12.43;;;;;;;20.20;47.30;99532.91;1757698;79;21499;-65
2022/06/11 00:04:33;;;;;;;17.07;12.75;;;;;;;20.17;48.14;99527.82;1751641;79;21791;-64
2022/06/11 00:07:04;;;;;;;17.60;12.58;;;;;;;20.13;47.99;99529.90;1758866;79;21412;-65
2022/06/11 00:09:31;;;;;;;15.63;11.43;;;;;;;20.10;47.44;99526.64;1756585;79;21423;-64
2022/06/11 00:11:58;;;;;;;17.15;11.10;;;;;;;20.04;47.67;99520.00;1750157;79;21544;-64
2022/06/11 00:14:29;;;;;;;13.65;11.28;;;;;;;20.01;47.62;99526.95;1755636;79;21010;-64
2022/06/11 00:16:56;;;;;;;14.23;12.03;;;;;;;19.98;47.48;99529.36;1759787;79;21818;-64
2022/06/11 00:19:23;;;;;;;15.83;12.50;;;;;;;19.96;47.45;99527.81;1751336;79;21574;-64
2022/06/11 00:21:51;;;;;;;15.77;10.93;;;;;;;19.95;47.33;99530.14;1758149;81;21569;-64
2022/06/11 00:24:19;;;;;;;19.95;11.68;;;;;;;19.92;47.46;99526.38;1750725;79;21565;-64
2022/06/11 00:26:49;;;;;;;17.98;12.10;;;;;;;19.89;47.39;99529.29;1761168;79;21431;-65
2022/06/11 00:29:18;;;;;;;14.90;11.70;;;;;;;19.86;47.76;99527.73;1751532;79;21958;-65
2022/06/11 00:31:48;;;;;;;14.10;11.68;;;;;;;19.84;47.39;99528.36;1754899;79;21465;-65
2022/06/11 00:34:14;;;;;;;;;;;;;;;19.84;47.84;99524.36;1759669;79;21004;-65
2022/06/11 00:36:43;;;;;;;18.17;12.53;;;;;;;19.84;48.33;99533.20;1754481;79;20454;-65
2022/06/11 00:39:10;;;;;;;18.82;12.60;;;;;;;19.80;47.97;99532.26;1751786;79;21518;-65
2022/06/11 00:41:39;;;;;;;16.25;12.10;;;;;;;19.82;48.73;99525.81;1746291;79;21766;-65
2022/06/11 00:44:06;;;;;;;16.62;12.35;;;;;;;19.86;48.40;99528.23;1752803;79;21494;-65
2022/06/11 00:46:54;;;;;;;15.25;11.68;;;;;;;19.81;48.48;99526.77;1749231;79;21452;-65
2022/06/11 00:49:54;;;;;;;21.12;12.47;;;;;;;19.79;48.29;99535.39;1751510;79;21511;-65
2022/06/11 00:52:31;;;;;;;17.87;11.88;;;;;;;19.75;48.87;99539.78;1750938;79;21992;-64
2022/06/11 00:55:11;;;;;;;18.57;12.75;;;;;;;19.69;48.48;99533.11;1760885;79;21725;-65
2022/06/11 00:57:46;;;;;;;16.45;11.88;;;;;;;19.65;48.51;99532.51;1744893;79;21533;-65
2022/06/11 01:00:27;;;;;;;15.75;11.88;;;;;;;19.64;48.83;99541.96;1750363;79;21501;-64
2022/06/11 01:02:54;;;;;;;13.45;11.60;;;;;;;19.64;48.58;99537.47;1755076;79;21569;-64
2022/06/11 01:05:26;;;;;;;19.55;11.33;;;;;;;19.61;48.76;99539.57;1768010;79;21648;-65
2022/06/11 01:08:29;;;;;;;22.62;11.68;;;;;;;19.61;49.50;99542.23;1750649;79;21888;-65
2022/06/11 01:11:30;;;;;;;14.75;12.33;;;;;;;19.61;49.48;99547.57;1746331;79;21376;-64
2022/06/11 01:14:22;;;;;;;16.25;11.57;;;;;;;19.58;49.44;99547.81;1758134;79;21648;-64
2022/06/11 01:17:28;;;;;;;15.58;12.00;;;;;;;19.55;49.40;99545.38;1750393;79;21529;-63
2022/06/11 01:20:19;;;;;;;17.90;12.07;;;;;;;19.56;49.18;99554.59;1747420;80;21560;-64
2022/06/11 01:23:35;;;;;;;15.93;11.33;;;;;;;19.59;49.26;99557.02;1744863;80;21882;-65
2022/06/11 01:26:22;;;;;;;12.90;11.50;;;;;;;19.61;48.87;99558.23;1745538;80;21643;-65
2022/06/11 01:29:28;;;;;;;15.20;11.70;;;;;;;19.59;48.90;99553.48;1744382;80;21062;-64
2022/06/11 01:32:05;;;;;;;16.15;12.07;;;;;;;19.57;49.08;99562.09;1738891;80;21612;-64
2022/06/11 01:34:58;;;;;;;20.90;12.18;;;;;;;19.53;49.78;99570.83;1748773;80;21687;-64
2022/06/11 01:37:40;;;;;;;15.38;12.43;;;;;;;19.50;49.79;99567.59;1740770;80;21824;-67
2022/06/11 01:40:39;;;;;;;19.95;12.47;;;;;;;19.45;49.13;99565.28;1750823;79;21682;-64
2022/06/11 01:43:36;;;;;;;17.05;12.25;;;;;;;19.42;49.25;99569.06;1749563;80;21557;-65
2022/06/11 01:46:07;;;;;;;20.35;13.65;;;;;;;19.41;49.73;99574.02;1740731;80;21466;-64
2022/06/11 01:48:34;;;;;;;16.93;12.43;;;;;;;19.39;49.16;99571.96;1747495;80;21603;-66
2022/06/11 01:51:12;;;;;;;15.75;11.85;;;;;;;19.39;48.96;99575.96;1751351;80;21481;-65
2022/06/11 01:54:03;;;;;;;18.00;12.80;;;;;;;19.39;49.16;99575.13;1754933;80;21429;-66
2022/06/11 01:56:41;;;;;;;17.50;12.78;;;;;;;19.39;48.39;99575.13;1733846;80;21517;-65
2022/06/11 01:59:17;;;;;;;15.48;11.75;;;;;;;19.37;48.69;99567.73;1753271;80;21513;-65
2022/06/11 02:01:58;;;;;;;15.03;11.45;;;;;;;19.38;48.83;99568.95;1747807;80;21431;-65
2022/06/11 02:04:46;;;;;;;19.20;12.45;;;;;;;19.37;48.65;99568.58;1740558;80;21474;-64
2022/06/11 02:07:33;;;;;;;21.40;11.37;;;;;;;19.37;48.62;99573.07;1750942;80;21664;-64
2022/06/11 02:10:21;;;;;;;17.30;11.53;;;;;;;19.37;48.87;99579.23;1678460;80;28458;-64
2022/06/11 02:12:59;;;;;;;16.80;12.73;;;;;;;19.36;49.20;99578.86;1753564;79;21450;-65
2022/06/11 02:15:41;;;;;;;15.23;11.85;;;;;;;19.31;49.11;99579.73;1738184;80;21013;-65
2022/06/11 02:18:13;;;;;;;16.10;11.45;;;;;;;19.30;49.15;99575.86;1747505;80;21999;-65
2022/06/11 02:20:45;;;;;;;16.45;12.20;;;;;;;19.30;49.26;99587.36;1754401;80;21055;-65
2022/06/11 02:23:32;;;;;;;16.82;11.95;;;;;;;19.28;49.49;99585.30;1753047;80;21441;-65
2022/06/11 02:26:02;;;;;;;16.17;12.58;;;;;;;19.23;49.46;99590.15;1753339;80;21548;-63
2022/06/11 02:28:32;;;;;;;14.53;12.82;;;;;;;19.23;49.42;99589.69;1750786;80;21200;-63
2022/06/11 02:31:04;;;;;;;17.62;12.15;;;;;;;19.24;49.70;99594.52;1723779;80;21549;-64
2022/06/11 02:33:32;;;;;;;15.65;11.83;;;;;;;19.25;50.07;99592.23;1750980;79;21559;-65
2022/06/11 02:36:14;;;;;;;17.32;12.73;;;;;;;19.25;50.03;99590.91;1751545;80;21532;-64
2022/06/11 02:38:40;;;;;;;17.27;11.97;;;;;;;19.25;50.19;99595.73;1744626;80;21541;-65
2022/06/11 02:41:13;;;;;;;20.05;13.13;;;;;;;19.25;50.18;99596.23;1748491;80;20981;-65
2022/06/11 02:43:40;;;;;;;19.73;12.85;;;;;;;19.27;50.67;99596.95;1753086;80;21522;-66
2022/06/11 02:48:53;;;;;;;17.77;12.78;;;;;;;19.29;51.72;99599.01;1747771;80;21446;-66
2022/06/11 02:51:21;;;;;;;17.80;11.43;;;;;;;19.37;51.81;99599.23;1752816;80;21461;-66
2022/06/11 02:53:47;;;;;;;22.35;12.78;;;;;;;19.51;52.11;99601.27;1743927;80;21504;-65
2022/06/11 02:56:14;;;;;;;15.78;12.30;;;;;;;19.58;51.97;99598.48;1754397;80;21541;-66
2022/06/11 02:58:41;;;;;;;19.20;13.28;;;;;;;19.63;51.94;99599.80;1748365;80;21592;-66
2022/06/11 03:01:08;;;;;;;17.92;12.55;;;;;;;19.68;52.10;99599.91;1748069;80;21571;-66
2022/06/11 03:03:35;;;;;;;18.12;13.55;;;;;;;19.72;51.49;99597.34;1749507;80;21512;-66
2022/06/11 03:06:04;;;;;;;14.58;12.85;;;;;;;19.77;51.53;99597.36;1752261;80;21472;-67
2022/06/11 03:08:31;;;;;;;21.65;13.03;;;;;;;19.80;51.82;99602.45;1748879;80;21853;-66
2022/06/11 03:10:58;;;;;;;19.65;13.75;;;;;;;19.85;51.99;99604.73;1750363;80;21564;-67
2022/06/11 03:13:27;;;;;;;14.73;12.43;;;;;;;19.86;52.02;99606.94;1749125;80;21569;-67
2022/06/11 03:15:54;;;;;;;20.70;13.22;;;;;;;19.90;52.60;99606.55;1746946;80;20937;-67
2022/06/11 03:18:22;;;;;;;19.65;14.05;;;;;;;19.97;52.91;99612.23;1752303;80;21064;-66
2022/06/11 03:20:51;;;;;;;21.35;12.80;;;;;;;20.03;52.79;99605.05;1751785;80;21922;-67
2022/06/11 03:23:18;;;;;;;16.73;13.75;;;;;;;20.07;52.60;99604.31;1759458;80;28711;-66
2022/06/11 03:25:45;;;;;;;16.35;12.65;;;;;;;20.15;52.75;99604.02;1744824;80;21052;-67
2022/06/11 03:28:18;;;;;;;18.50;11.83;;;;;;;20.23;53.07;99609.58;1760554;80;21036;-65
2022/06/11 03:30:46;;;;;;;15.43;11.95;;;;;;;20.39;53.39;99613.13;1758203;80;21565;-65
2022/06/11 03:33:13;;;;;;;16.35;12.90;;;;;;;20.51;53.14;99603.25;1751531;80;21898;-65
2022/06/11 03:35:41;;;;;;;19.27;13.50;;;;;;;20.63;52.29;99605.39;1745555;80;21533;-67
2022/06/11 03:38:08;;;;;;;;;;;;;;;20.76;51.19;99603.86;1751909;80;21450;-66
2022/06/11 03:40:35;;;;;;;17.32;13.78;;;;;;;20.87;50.80;99603.78;1751656;80;20438;-66
2022/06/11 03:43:02;;;;;;;18.07;14.60;;;;;;;20.94;50.62;99617.44;1753370;80;21580;-65
2022/06/11 03:45:29;;;;;;;21.40;14.97;;;;;;;21.05;50.73;99612.52;1747581;80;22262;-66
2022/06/11 03:47:55;;;;;;;19.87;13.80;;;;;;;21.16;50.96;99616.43;1746924;80;21572;-66
2022/06/11 03:50:29;;;;;;;19.67;15.23;;;;;;;21.29;50.86;99618.88;1755094;80;21537;-65
2022/06/11 03:52:56;;;;;;;21.12;14.87;;;;;;;21.40;50.65;99617.44;1746351;80;21431;-66
2022/06/11 03:55:23;;;;;;;18.40;14.60;;;;;;;21.54;50.09;99617.58;1750711;80;21597;-65
2022/06/11 03:57:51;;;;;;;19.95;14.75;;;;;;;21.64;49.61;99616.25;1756076;80;21537;-65
2022/06/11 04:03:06;;;;;;;17.62;13.80;;;;;;;21.86;48.91;99616.02;1750959;80;21462;-66
2022/06/11 04:05:33;;;;;;;23.52;14.03;;;;;;;21.96;48.45;99611.53;1749890;80;21498;-66
2022/06/11 04:08:00;;;;;;;22.60;13.38;;;;;;;22.06;48.33;99611.54;1747023;80;21565;-66
2022/06/11 04:10:28;;;;;;;17.32;14.53;;;;;;;22.15;48.17;99609.36;1740035;80;21877;-65
2022/06/11 04:12:55;;;;;;;18.87;13.18;;;;;;;22.27;47.90;99607.91;1752037;80;20953;-65
2022/06/11 04:15:22;;;;;;;14.65;13.05;;;;;;;22.38;48.39;99605.55;1753252;80;21500;-66
2022/06/11 04:17:49;;;;;;;23.20;13.95;;;;;;;22.46;48.88;99609.22;1751689;80;21526;-66
2022/06/11 04:20:16;;;;;;;16.35;13.80;;;;;;;22.53;49.30;99609.01;1761092;79;21532;-67
2022/06/11 04:22:43;;;;;;;18.62;13.08;;;;;;;22.61;49.51;99616.33;1752028;80;21826;-64
2022/06/11 04:25:13;;;;;;;17.12;12.90;;;;;;;22.69;48.96;99615.60;1749461;80;21568;-64
2022/06/11 04:27:39;;;;;;;17.77;13.05;;;;;;;22.81;48.21;99615.80;1753395;80;21561;-65
2022/06/11 04:30:09;;;;;;;13.85;12.40;;;;;;;22.92;47.91;99616.97;1750983;80;21426;-64
2022/06/11 04:32:36;;;;;;;14.78;11.43;;;;;;;23.05;46.46;99624.70;1752017;80;21428;-65
2022/06/11 04:35:05;;;;;;;16.48;12.03;;;;;;;23.05;46.46;99624.70;1750708;80;21842;-64
2022/06/11 04:37:33;;;;;;;14.35;12.05;;;;;;;23.13;47.99;99627.98;1747907;80;21595;-64
2022/06/11 04:40:00;;;;;;;15.38;11.55;;;;;;;23.27;48.43;99623.49;1754415;80;21458;-64
2022/06/11 04:42:27;;;;;;;12.10;10.23;;;;;;;23.27;48.43;99623.49;1740308;80;21615;-64
2022/06/11 04:44:54;;;;;;;15.83;10.82;;;;;;;23.33;47.61;99624.23;1750090;80;21596;-65
2022/06/11 04:47:24;;;;;;;16.23;10.85;;;;;;;23.44;45.92;99620.52;1753190;80;21799;-65
2022/06/11 04:49:52;;;;;;;11.30;10.15;;;;;;;23.52;45.36;99622.45;1748633;80;21564;-64
2022/06/11 04:52:21;;;;;;;15.38;10.35;;;;;;;23.66;44.85;99623.80;1757827;80;21042;-64
2022/06/11 04:54:48;;;;;;;15.70;10.85;;;;;;;23.66;44.85;99623.80;1749696;80;20997;-64
2022/06/11 04:57:15;;;;;;;13.85;10.05;;;;;;;23.74;44.77;99624.39;1748390;80;21541;-63
2022/06/11 04:59:41;;;;;;;17.25;10.38;;;;;;;23.87;43.87;99615.00;1750920;80;21792;-64
2022/06/11 05:02:08;;;;;;;13.68;9.48;;;;;;;23.98;43.19;99622.47;1750503;80;21470;-63
2022/06/11 05:04:35;;;;;;;15.35;9.88;;;;;;;23.98;43.19;99622.47;1746658;80;21450;-63
2022/06/11 05:07:02;;;;;;;9.28;8.20;;;;;;;24.10;43.32;99620.75;1755366;79;21411;-64
2022/06/11 05:09:30;;;;;;;11.03;8.58;;;;;;;24.10;43.32;99620.75;1742521;80;21568;-64
2022/06/11 05:11:57;;;;;;;14.58;8.83;;;;;;;24.18;43.31;99621.33;1747510;80;21997;-63
2022/06/11 05:14:24;;;;;;;16.67;9.20;;;;;;;24.27;43.28;99623.60;1748223;80;21706;-64
2022/06/11 05:16:51;;;;;;;10.20;8.08;;;;;;;24.38;43.54;99621.19;1751557;80;21554;-64
2022/06/11 05:19:19;;;;;;;9.80;8.53;;;;;;;24.49;43.16;99623.12;1743051;80;21567;-64
2022/06/11 05:21:47;;;;;;;12.88;9.20;;;;;;;24.62;42.89;99625.44;1749530;80;21000;-65
2022/06/11 05:24:14;;;;;;;10.67;8.03;;;;;;;24.76;43.09;99624.02;1742685;80;21625;-65
2022/06/11 05:26:50;;;;;;;11.38;8.43;;;;;;;24.85;42.94;99623.07;1750907;80;21117;-64
2022/06/11 05:29:30;;;;;;;12.15;8.33;;;;;;;24.96;42.30;99630.03;1742233;80;21537;-66
2022/06/11 05:31:57;;;;;;;11.93;8.18;;;;;;;25.08;42.17;99628.42;1720044;81;21593;-66
2022/06/11 05:34:23;;;;;;;11.22;8.03;;;;;;;25.22;41.97;99630.49;1741679;80;21508;-63
2022/06/11 05:36:50;;;;;;;15.35;8.98;;;;;;;25.33;41.37;99632.94;1747201;80;21771;-63
2022/06/11 05:39:17;;;;;;;15.00;8.63;;;;;;;25.47;40.85;99636.02;1739314;80;21513;-63
2022/06/11 05:41:43;;;;;;;11.93;8.90;;;;;;;25.59;40.96;99638.77;1746862;80;21488;-59
2022/06/11 05:44:10;;;;;;;9.75;8.13;;;;;;;25.80;40.14;99634.29;1741485;80;21564;-59
2022/06/11 05:46:36;;;;;;;12.93;8.78;;;;;;;25.80;40.14;99634.29;1752611;80;21421;-60
2022/06/11 05:49:07;;;;;;;9.35;8.35;;;;;;;25.94;40.18;99633.69;1704065;82;21850;-59
2022/06/11 05:54:36;;;;;;;9.73;8.35;;;;;;;25.55;42.40;99632.03;1785760;78;23279;-58
2022/06/11 05:57:06;;;;;;;9.88;8.88;;;;;;;26.26;41.04;99629.36;1732502;81;21441;-58
2022/06/11 05:59:38;;;;;;;11.60;8.73;;;;;;;26.39;41.34;99626.14;1741335;80;21860;-57
2022/06/11 06:02:10;;;;;;;12.50;9.35;;;;;;;26.52;41.55;99626.98;1696468;81;21879;-61
2022/06/11 06:04:35;;;;;;;13.48;9.28;;;;;;;26.60;41.05;99622.99;1697081;83;21612;-59
2022/06/11 06:07:03;;;;;;;11.18;10.00;;;;;;;26.70;40.22;99628.20;1691706;83;21593;-59
2022/06/11 06:09:30;;;;;;;;;;;;;;;26.83;39.30;99623.64;1688537;83;21566;-59
2022/06/11 06:11:57;;;;;;;12.10;9.70;;;;;;;26.96;38.63;99623.95;1705349;82;22008;-60
2022/06/11 06:14:24;;;;;;;12.20;10.00;;;;;;;27.03;39.27;99627.64;1698542;82;21535;-59
2022/06/11 06:16:51;;;;;;;10.47;9.30;;;;;;;27.10;40.01;99622.38;1701839;82;21484;-58
2022/06/11 06:19:17;;;;;;;15.07;10.43;;;;;;;27.19;41.21;99624.88;1699300;82;21577;-58
2022/06/11 06:21:44;;;;;;;14.50;9.65;;;;;;;27.35;41.96;99624.51;1698384;82;21443;-60
2022/06/11 06:24:10;;;;;;;15.50;10.93;;;;;;;27.46;41.95;99628.69;1698818;82;21824;-63
2022/06/11 06:26:38;;;;;;;19.73;13.25;;;;;;;27.57;41.12;99626.44;1699579;82;21435;-59
2022/06/11 06:29:05;;;;;;;17.95;12.33;;;;;;;27.66;39.15;99627.25;1713865;81;21561;-63
2022/06/11 06:31:32;;;;;;;;;;;;;;;27.76;37.40;99624.33;1714304;80;21611;-61
2022/06/11 06:34:01;;;;;;;19.83;15.43;;;;;;;27.79;37.35;99625.84;1705726;81;20454;-58
2022/06/11 06:36:29;;;;;;;22.62;17.82;;;;;;;27.88;36.67;99614.81;1702639;81;21920;-57
2022/06/11 06:38:56;;;;;;;24.70;16.97;;;;;;;27.98;36.43;99620.01;1707545;81;21529;-58
2022/06/11 06:41:23;;;;;;;27.52;16.95;;;;;;;28.08;35.25;99619.77;1694357;83;21564;-61
2022/06/11 06:43:49;;;;;;;22.32;17.42;;;;;;;28.21;34.99;99616.47;1693812;81;21565;-60
2022/06/11 06:46:17;;;;;;;24.30;18.92;;;;;;;28.30;34.92;99621.63;1693926;82;21567;-60
2022/06/11 06:48:44;;;;;;;21.55;17.45;;;;;;;28.43;35.16;99616.13;1692747;82;21899;-61
2022/06/11 06:51:12;;;;;;;26.90;18.62;;;;;;;28.54;35.07;99619.27;1703181;82;21573;-61
2022/06/11 06:53:40;;;;;;;24.55;18.48;;;;;;;28.62;35.01;99618.87;1698761;81;21484;-61
2022/06/11 06:56:07;;;;;;;27.25;18.87;;;;;;;28.72;35.22;99616.20;1680437;82;21472;-61
2022/06/11 06:58:34;;;;;;;23.50;18.00;;;;;;;28.85;34.48;99620.16;1689546;82;21523;-61
2022/06/11 07:01:02;;;;;;;23.73;18.20;;;;;;;28.89;34.41;99613.34;1688616;82;21792;-63
2022/06/11 07:03:29;;;;;;;25.92;18.32;;;;;;;28.95;34.76;99616.66;1710060;82;21822;-60
2022/06/11 07:05:56;;;;;;;23.47;18.65;;;;;;;29.03;34.67;99624.70;1694769;81;21699;-60
2022/06/11 07:08:22;;;;;;;19.45;16.17;;;;;;;29.17;34.44;99624.92;1692894;82;21551;-60
2022/06/11 07:10:53;;;;;;;20.35;15.98;;;;;;;29.23;33.56;99618.23;1685665;83;21022;-60
2022/06/11 07:13:21;;;;;;;17.77;14.47;;;;;;;29.34;33.35;99621.51;1691730;82;21901;-61
2022/06/11 07:15:50;;;;;;;;;;;;;;;29.44;32.65;99626.97;1694537;82;21507;-60
2022/06/11 07:18:29;;;;;;;21.12;14.58;;;;;;;29.60;32.06;99625.07;1690806;82;20425;-60
2022/06/11 07:20:56;;;;;;;15.35;13.32;;;;;;;29.68;31.93;99622.24;1687636;83;21038;-60
2022/06/11 07:23:40;;;;;;;16.95;13.83;;;;;;;29.75;31.89;99616.95;1684073;84;21507;-60
2022/06/11 07:26:10;;;;;;;15.23;13.10;;;;;;;29.82;32.54;99617.84;1687651;83;21817;-58
2022/06/11 07:28:40;;;;;;;20.75;13.98;;;;;;;29.93;32.11;99614.63;1690536;82;21042;-59
2022/06/11 07:31:07;;;;;;;15.90;12.98;;;;;;;30.01;31.60;99616.40;1678984;83;21553;-59
2022/06/11 07:33:34;;;;;;;22.98;14.13;;;;;;;30.05;30.91;99621.23;1679645;82;21500;-60
2022/06/11 07:36:03;;;;;;;18.75;12.43;;;;;;;30.17;30.68;99610.70;1678685;82;21571;-60
2022/06/11 07:38:29;;;;;;;;;;;;;;;30.32;29.14;99613.88;1692399;82;21821;-59
2022/06/11 07:40:56;;;;;;;10.18;8.30;;;;;;;30.39;28.53;99613.45;1691762;82;20480;-60
2022/06/11 07:43:23;;;;;;;9.03;7.37;;;;;;;30.42;27.07;99617.11;1664538;84;21523;-60
2022/06/11 07:45:50;;;;;;;8.98;7.40;;;;;;;30.52;26.73;99607.30;1683207;82;21430;-59
2022/06/11 07:48:17;;;;;;;11.40;8.33;;;;;;;30.64;26.63;99610.61;1694094;82;21071;-60
2022/06/11 07:50:46;;;;;;;13.43;8.00;;;;;;;30.76;26.56;99606.87;1691719;83;21889;-60
2022/06/11 07:53:13;;;;;;;10.45;7.70;;;;;;;30.86;25.49;99603.80;1694220;82;21643;-60
2022/06/11 07:55:43;;;;;;;10.40;7.95;;;;;;;30.91;24.55;99597.29;1680416;82;21555;-60
2022/06/11 07:58:10;;;;;;;9.03;7.90;;;;;;;30.97;24.65;99607.88;1694677;82;21090;-59
2022/06/11 08:00:40;;;;;;;7.92;7.20;;;;;;;31.05;24.33;99607.17;1693379;82;21660;-59
2022/06/11 08:03:07;;;;;;;9.65;7.53;;;;;;;31.12;24.26;99608.58;1685189;83;21895;-60
2022/06/11 08:05:33;;;;;;;10.73;7.70;;;;;;;31.21;23.86;99598.38;1694613;82;21435;-59
2022/06/11 08:08:01;;;;;;;9.93;7.67;;;;;;;31.26;24.44;99599.14;1697916;82;21515;-59
2022/06/11 08:10:30;;;;;;;8.38;7.47;;;;;;;31.29;24.37;99595.51;1691187;82;21628;-59
2022/06/11 08:12:57;;;;;;;8.08;6.90;;;;;;;31.35;23.81;99605.56;1693270;83;21570;-60
2022/06/11 08:15:25;;;;;;;11.73;6.90;;;;;;;31.38;23.42;99605.16;1671043;84;21898;-60
2022/06/11 08:17:51;;;;;;;9.23;6.47;;;;;;;31.39;23.80;99606.00;1686390;82;27028;-60
2022/06/11 08:20:26;;;;;;;9.87;6.77;;;;;;;31.36;22.41;99603.67;1691925;82;21539;-61
2022/06/11 08:22:52;;;;;;;11.22;6.67;;;;;;;31.32;22.95;99610.02;1682722;82;21484;-60
2022/06/11 08:25:21;;;;;;;7.85;6.53;;;;;;;31.36;23.06;99600.45;1687854;82;21476;-60
2022/06/11 08:27:48;;;;;;;10.80;6.65;;;;;;;31.40;22.56;99609.02;1697198;82;21512;-60
2022/06/11 08:30:18;;;;;;;7.67;6.87;;;;;;;31.45;23.52;99601.10;1692565;82;21554;-61
2022/06/11 08:32:45;;;;;;;7.15;6.42;;;;;;;31.48;23.46;99600.73;1699420;82;21457;-62
2022/06/11 08:35:12;;;;;;;9.60;5.85;;;;;;;31.55;23.07;99600.25;1690368;83;21638;-60
2022/06/11 08:37:39;;;;;;;7.62;5.58;;;;;;;31.57;22.90;99598.16;1698587;83;21591;-59
2022/06/11 08:40:11;;;;;;;8.80;5.08;;;;;;;31.60;23.12;99595.02;1686665;82;21843;-60
2022/06/11 08:42:42;;;;;;;6.05;5.33;;;;;;;31.59;22.00;99593.86;1691260;82;21521;-60
2022/06/11 08:45:22;;;;;;;8.05;4.67;;;;;;;31.58;22.25;99594.39;1666191;83;21634;-65
2022/06/11 08:47:52;;;;;;;6.50;4.30;;;;;;;31.61;21.90;99591.28;1749255;80;21499;-65
2022/06/11 08:50:31;;;;;;;8.13;4.97;;;;;;;31.62;21.67;99590.75;1734261;80;21558;-66
2022/06/11 08:52:58;;;;;;;7.17;6.37;;;;;;;31.66;22.62;99585.75;1708009;82;21940;-69
2022/06/11 08:55:25;;;;;;;7.07;6.37;;;;;;;31.91;24.27;99580.56;1733173;80;21621;-66
2022/06/11 08:58:02;;;;;;;9.83;6.30;;;;;;;31.91;24.27;99580.56;1716663;80;21444;-66
2022/06/11 09:00:50;;;;;;;9.25;6.00;;;;;;;32.06;23.25;99581.28;1731536;80;21494;-66
2022/06/11 09:03:56;;;;;;;;;;;;;;;32.09;22.26;99586.28;1725423;80;21614;-65
2022/06/11 09:06:53;;;;;;;10.93;6.45;;;;;;;32.01;21.73;99584.56;1739171;79;21796;-66
2022/06/11 09:09:36;;;;;;;8.30;7.15;;;;;;;32.03;22.38;99580.85;1730172;80;21503;-65
2022/06/11 09:12:42;;;;;;;8.13;7.28;;;;;;;32.05;21.63;99582.31;1699152;80;21420;-65
2022/06/11 09:15:28;;;;;;;9.28;6.22;;;;;;;32.06;21.80;99581.28;1727400;80;21535;-64
2022/06/11 09:18:17;;;;;;;10.38;7.15;;;;;;;32.14;21.88;99575.63;1722432;80;21473;-65
2022/06/11 09:21:04;;;;;;;12.33;6.72;;;;;;;32.20;21.73;99573.43;1726217;80;21689;-65
2022/06/11 09:24:25;;;;;;;7.35;6.45;;;;;;;32.22;21.14;99568.31;1733243;80;21525;-65
2022/06/11 09:27:04;;;;;;;7.83;6.08;;;;;;;32.18;21.13;99574.16;1735760;80;21443;-65
2022/06/11 09:29:45;;;;;;;8.13;5.37;;;;;;;32.25;21.67;99569.23;1727635;80;21550;-66
2022/06/11 09:32:15;;;;;;;7.67;5.78;;;;;;;32.34;22.05;99572.93;1735603;80;21507;-65
2022/06/11 09:34:50;;;;;;;8.18;5.83;;;;;;;32.45;22.04;99570.08;1729941;79;21904;-66
2022/06/11 09:37:31;;;;;;;7.55;5.87;;;;;;;32.61;21.98;99565.28;1692007;83;21541;-65
2022/06/11 09:40:27;;;;;;;8.30;5.97;;;;;;;32.72;21.54;99568.71;1685620;83;21596;-66
2022/06/11 09:43:21;;;;;;;8.53;6.22;;;;;;;32.73;21.24;99567.68;1689653;83;21458;-66
2022/06/11 09:46:28;;;;;;;7.30;5.65;;;;;;;32.67;21.62;99568.00;1650546;85;21631;-63
2022/06/11 09:49:19;;;;;;;7.80;5.75;;;;;;;32.69;21.76;99566.44;1651066;85;21965;-64
2022/06/11 09:52:07;;;;;;;6.33;5.72;;;;;;;32.76;20.56;99568.09;1648297;84;22000;-65
2022/06/11 09:54:51;;;;;;;7.75;5.75;;;;;;;32.68;20.30;99562.89;1648487;84;21597;-64
2022/06/11 09:57:31;;;;;;;6.90;5.97;;;;;;;32.63;20.32;99562.67;1648850;84;21696;-65
2022/06/11 10:00:12;;;;;;;7.83;5.55;;;;;;;32.66;20.24;99560.88;1649962;84;21031;-63
2022/06/11 10:05:21;;;;;;;7.30;6.08;;;;;;;32.62;21.05;99550.10;1647912;84;21688;-64
2022/06/11 10:07:52;;;;;;;9.35;5.90;;;;;;;32.74;22.39;99555.76;1648303;85;21640;-64
2022/06/11 10:10:26;;;;;;;10.25;5.67;;;;;;;32.92;21.67;99549.63;1649184;84;21583;-64
2022/06/11 10:13:01;;;;;;;8.25;5.78;;;;;;;33.06;21.74;99551.77;1647585;84;21634;-65
2022/06/11 10:15:34;;;;;;;7.12;5.78;;;;;;;33.12;21.43;99549.07;1643531;84;21841;-66
2022/06/11 10:18:12;;;;;;;5.67;5.15;;;;;;;33.14;21.38;99547.50;1621133;86;21564;-66
2022/06/11 10:20:44;;;;;;;7.92;5.60;;;;;;;33.17;20.94;99540.23;1594279;88;21555;-65
2022/06/11 10:23:40;;;;;;;7.80;5.85;;;;;;;33.18;20.42;99544.65;1619404;87;21573;-66
2022/06/11 10:26:18;;;;;;;7.28;5.62;;;;;;;33.17;21.03;99542.96;1625526;85;21602;-64
2022/06/11 10:29:09;;;;;;;8.08;5.25;;;;;;;33.24;21.23;99536.14;1616368;86;21825;-66
2022/06/11 10:31:49;;;;;;;7.15;5.30;;;;;;;33.29;20.34;99541.78;1623096;86;21517;-65
2022/06/11 10:34:21;;;;;;;8.83;5.65;;;;;;;33.21;20.60;99533.33;1618859;86;21595;-65
2022/06/11 10:37:15;;;;;;;8.23;5.53;;;;;;;33.24;20.93;99532.88;1622852;86;21547;-65
2022/06/11 10:39:47;;;;;;;7.15;5.72;;;;;;;33.34;20.80;99532.41;1618072;87;21541;-64
2022/06/11 10:42:18;;;;;;;8.73;5.85;;;;;;;33.41;20.64;99528.30;1623199;85;21947;-65
2022/06/11 10:44:50;;;;;;;8.10;5.17;;;;;;;33.51;20.81;99530.02;1621233;86;21524;-65
2022/06/11 10:47:32;;;;;;;6.25;5.60;;;;;;;33.63;20.11;99525.56;1618173;86;21548;-65
2022/06/11 10:50:13;;;;;;;8.30;5.70;;;;;;;33.69;19.89;99534.24;1615063;86;21482;-65
2022/06/11 10:52:55;;;;;;;6.97;5.08;;;;;;;33.70;19.17;99529.62;1625493;87;21021;-65
2022/06/11 10:55:49;;;;;;;6.55;4.90;;;;;;;33.69;19.88;99527.97;1615674;87;22171;-66
2022/06/11 10:58:58;;;;;;;6.10;5.30;;;;;;;33.61;18.66;99518.13;1594467;87;21577;-65
2022/06/11 11:01:33;;;;;;;6.72;5.30;;;;;;;33.63;19.60;99526.92;1591085;87;21899;-66
2022/06/11 11:04:24;;;;;;;7.55;5.37;;;;;;;33.75;19.78;99529.80;1618346;87;21121;-65
2022/06/11 11:07:11;;;;;;;11.38;7.35;;;;;;;33.83;19.46;99521.37;1589139;87;21466;-69
2022/06/11 11:09:39;;;;;;;6.50;5.58;;;;;;;33.92;19.46;99521.39;1624245;86;22127;-64
2022/06/11 11:12:32;;;;;;;7.65;5.67;;;;;;;33.88;19.04;99517.44;1625478;86;21464;-64
2022/06/11 11:15:16;;;;;;;6.60;6.00;;;;;;;33.81;19.51;99516.64;1620136;87;21603;-66
2022/06/11 11:17:46;;;;;;;9.40;5.55;;;;;;;33.94;19.21;99519.30;1622518;87;21068;-66
2022/06/11 11:20:38;;;;;;;7.65;6.00;;;;;;;33.99;18.22;99507.72;1614595;86;21594;-66
2022/06/11 11:23:15;;;;;;;8.03;5.35;;;;;;;33.83;18.24;99504.16;1617302;86;22032;-66
2022/06/11 11:25:56;;;;;;;6.60;5.85;;;;;;;33.81;18.84;99504.91;1612690;87;21609;-58
2022/06/11 11:28:40;;;;;;;6.72;5.90;;;;;;;33.94;19.44;99504.81;1589570;87;21544;-59
2022/06/11 11:31:12;;;;;;;6.78;5.72;;;;;;;34.08;20.24;99495.47;1614560;87;21569;-62
2022/06/11 11:33:41;;;;;;;8.88;6.30;;;;;;;34.22;19.64;99493.48;1617425;87;21018;-61
2022/06/11 11:36:22;;;;;;;12.23;6.53;;;;;;;34.28;19.08;99493.98;1600458;87;21743;-63
2022/06/11 11:39:17;;;;;;;6.33;5.72;;;;;;;34.37;19.82;99493.67;1619482;86;21582;-62
2022/06/11 11:42:11;;;;;;;5.90;5.22;;;;;;;34.44;19.00;99484.36;1624856;87;21541;-62
2022/06/11 11:44:48;;;;;;;7.08;5.72;;;;;;;34.55;19.86;99485.52;1610982;87;21032;-62
2022/06/11 11:47:17;;;;;;;7.83;5.45;;;;;;;34.67;19.51;99486.45;1616915;86;21605;-61
2022/06/11 11:49:49;;;;;;;5.95;5.30;;;;;;;34.72;19.03;99481.69;1612315;88;21572;-62
2022/06/11 11:52:18;;;;;;;8.58;5.50;;;;;;;34.77;18.65;99485.91;1620753;86;21633;-62
2022/06/11 11:55:11;;;;;;;7.78;5.62;;;;;;;34.77;18.16;99478.26;1610629;86;21602;-62
2022/06/11 11:57:37;;;;;;;6.60;5.50;;;;;;;34.72;17.76;99481.69;1619804;86;21514;-61
2022/06/11 12:00:09;;;;;;;7.75;5.15;;;;;;;34.60;17.93;99480.73;1618056;86;21581;-62
2022/06/11 12:02:46;;;;;;;8.45;5.70;;;;;;;34.52;17.67;99470.41;1616833;86;22002;-62
2022/06/11 12:05:24;;;;;;;;;;;;;;;34.47;17.58;99471.64;1620675;86;21573;-62
2022/06/11 12:07:52;;;;;;;5.72;5.05;;;;;;;34.42;18.01;99467.38;1614490;86;20506;-61
2022/06/11 12:10:41;;;;;;;6.83;5.60;;;;;;;34.51;18.45;99470.13;1617769;86;21028;-61